createdAt,value
2019-03-19T00:02:34.925Z,20.97
2019-03-19T00:05:04.261Z,23.13
2019-03-19T00:07:38.103Z,21.23
2019-03-19T00:10:11.828Z,23.07
2019-03-19T00:12:49.790Z,25.50
2019-03-19T00:15:22.868Z,25.80
2019-03-19T00:17:54.523Z,25.13
2019-03-19T00:20:29.149Z,21.23
2019-03-19T00:22:59.475Z,23.07
2019-03-19T00:28:21.120Z,25.80
2019-03-19T00:31:06.939Z,22.90
2019-03-19T00:33:40.197Z,23.10
2019-03-19T00:36:17.378Z,23.33
2019-03-19T00:38:53.644Z,25.17
2019-03-19T00:41:27.654Z,20.17
2019-03-19T00:44:02.998Z,21.77
2019-03-19T00:46:49.364Z,26.30
2019-03-19T00:49:23.200Z,24.97
2019-03-19T00:52:06.735Z,21.30
2019-03-19T00:55:00.815Z,18.43
2019-03-19T00:57:34.006Z,22.73
2019-03-19T01:00:05.695Z,23.27
2019-03-19T01:02:43.871Z,17.90
2019-03-19T01:05:29.346Z,19.47
2019-03-19T01:08:01.821Z,19.13
2019-03-19T01:10:34.632Z,20.87
2019-03-19T01:13:09.329Z,17.70
2019-03-19T01:15:40.061Z,17.67
2019-03-19T01:18:16.530Z,21.27
2019-03-19T01:20:51.972Z,18.87
2019-03-19T01:23:39.396Z,25.93
2019-03-19T01:26:18.219Z,15.97
2019-03-19T01:28:55.404Z,21.30
2019-03-19T01:31:29.553Z,18.03
2019-03-19T01:34:08.645Z,25.33
2019-03-19T01:36:41.612Z,19.07
2019-03-19T01:39:12.408Z,15.63
2019-03-19T01:41:46.719Z,20.00
2019-03-19T01:44:14.446Z,19.80
2019-03-19T01:46:44.462Z,22.63
2019-03-19T01:49:17.449Z,14.53
2019-03-19T01:51:49.512Z,26.10
2019-03-19T01:54:31.152Z,22.67
2019-03-19T01:57:10.488Z,25.47
2019-03-19T01:59:55.556Z,14.50
2019-03-19T02:02:28.341Z,14.40
2019-03-19T02:05:00.482Z,19.50
2019-03-19T02:07:30.263Z,26.00
2019-03-19T02:10:01.245Z,21.07
2019-03-19T02:12:32.333Z,18.00
2019-03-19T02:15:08.422Z,17.30
2019-03-19T02:17:42.515Z,17.57
2019-03-19T02:20:17.923Z,16.47
2019-03-19T02:22:48.656Z,17.43
2019-03-19T02:25:24.442Z,23.63
2019-03-19T02:27:55.245Z,18.97
2019-03-19T02:30:29.185Z,19.13
2019-03-19T02:33:03.373Z,16.60
2019-03-19T02:35:38.261Z,18.63
2019-03-19T02:38:26.138Z,19.73
2019-03-19T02:44:41.400Z,22.07
2019-03-19T02:47:04.148Z,20.30
2019-03-19T02:49:53.229Z,21.17
2019-03-19T02:52:22.089Z,18.93
2019-03-19T02:54:54.995Z,17.10
2019-03-19T02:57:27.403Z,21.43
2019-03-19T02:59:58.692Z,25.17
2019-03-19T03:02:36.141Z,26.73
2019-03-19T03:05:06.843Z,18.43
2019-03-19T03:07:39.501Z,16.97
2019-03-19T03:10:16.175Z,11.37
2019-03-19T03:12:43.456Z,22.73
2019-03-19T03:15:15.860Z,10.70
2019-03-19T03:17:52.327Z,12.17
2019-03-19T03:20:22.547Z,18.33
2019-03-19T03:23:09.973Z,19.87
2019-03-19T03:25:43.834Z,12.80
2019-03-19T03:28:13.935Z,15.10
2019-03-19T03:30:45.394Z,15.43
2019-03-19T03:33:15.480Z,19.40
2019-03-19T03:35:48.535Z,18.37
2019-03-19T03:38:40.757Z,15.77
2019-03-19T03:40:52.311Z,20.10
2019-03-19T03:43:23.621Z,17.47
2019-03-19T03:45:54.762Z,15.60
2019-03-19T03:48:29.302Z,18.77
2019-03-19T03:51:01.938Z,20.03
2019-03-19T03:53:31.775Z,19.03
2019-03-19T03:56:05.222Z,15.10
2019-03-19T03:58:43.097Z,20.30
2019-03-19T04:01:13.094Z,12.47
2019-03-19T04:03:43.002Z,15.20
2019-03-19T04:06:13.120Z,17.77
2019-03-19T04:08:47.130Z,14.63
2019-03-19T04:11:20.937Z,16.30
2019-03-19T04:14:12.326Z,17.57
2019-03-19T04:16:44.812Z,15.17
2019-03-19T04:19:23.823Z,21.80
2019-03-19T04:22:03.024Z,21.80
2019-03-19T04:24:31.363Z,12.50
2019-03-19T04:27:15.413Z,16.70
2019-03-19T04:29:34.023Z,13.27
2019-03-19T04:32:06.723Z,16.07
2019-03-19T04:34:39.050Z,14.53
2019-03-19T04:37:11.889Z,15.50
2019-03-19T04:39:41.625Z,19.47
2019-03-19T04:42:15.199Z,24.23
2019-03-19T04:44:47.212Z,20.10
2019-03-19T04:47:34.022Z,14.03
2019-03-19T04:49:54.518Z,14.93
2019-03-19T04:52:24.083Z,17.03
2019-03-19T04:55:05.966Z,12.13
2019-03-19T04:57:46.129Z,16.93
2019-03-19T05:00:23.201Z,21.17
2019-03-19T05:02:54.497Z,22.47
2019-03-19T05:05:30.582Z,11.60
2019-03-19T05:08:12.504Z,16.50
2019-03-19T05:10:47.240Z,18.40
2019-03-19T05:13:21.888Z,20.37
2019-03-19T05:15:54.668Z,12.20
2019-03-19T05:18:24.825Z,15.70
2019-03-19T05:20:54.403Z,12.80
2019-03-19T05:23:24.169Z,16.17
2019-03-19T05:26:20.356Z,16.53
2019-03-19T05:28:51.724Z,22.37
2019-03-19T05:31:23.118Z,17.50
2019-03-19T05:34:27.088Z,15.83
2019-03-19T05:36:36.830Z,19.20
2019-03-19T05:39:27.902Z,18.50
2019-03-19T05:42:04.147Z,17.70
2019-03-19T05:44:37.297Z,18.20
2019-03-19T05:47:07.838Z,21.07
2019-03-19T05:49:39.631Z,18.93
2019-03-19T05:52:09.886Z,19.33
2019-03-19T05:54:45.221Z,18.77
2019-03-19T05:57:16.579Z,16.93
2019-03-19T05:59:49.492Z,24.73
2019-03-19T06:02:19.471Z,20.17
2019-03-19T06:04:51.162Z,23.07
2019-03-19T06:07:23.124Z,23.67
2019-03-19T06:09:55.189Z,22.13
2019-03-19T06:12:27.813Z,20.30
2019-03-19T06:15:02.544Z,22.33
2019-03-19T06:17:33.990Z,19.03
2019-03-19T06:20:03.845Z,23.63
2019-03-19T06:22:34.180Z,24.20
2019-03-19T06:25:26.495Z,21.47
2019-03-19T06:28:00.987Z,28.87
2019-03-19T06:30:31.073Z,22.33
2019-03-19T06:33:02.398Z,24.90
2019-03-19T06:35:32.494Z,26.37
2019-03-19T06:38:11.551Z,24.27
2019-03-19T06:40:44.585Z,24.37
2019-03-19T06:43:17.494Z,29.43
2019-03-19T06:45:47.204Z,22.90
2019-03-19T06:48:23.723Z,26.50
2019-03-19T06:51:01.458Z,18.27
2019-03-19T06:53:35.850Z,29.23
2019-03-19T06:56:07.322Z,21.70
2019-03-19T06:58:47.073Z,22.37
2019-03-19T07:01:22.454Z,20.17
2019-03-19T07:03:56.362Z,26.13
2019-03-19T07:06:31.914Z,29.07
2019-03-19T07:09:11.647Z,18.47
2019-03-19T07:11:56.312Z,24.67
2019-03-19T07:14:42.446Z,25.80
2019-03-19T07:17:15.534Z,28.60
2019-03-19T07:19:57.897Z,37.37
2019-03-19T07:22:27.652Z,25.93
2019-03-19T07:24:57.216Z,26.57
2019-03-19T07:27:36.596Z,23.17
2019-03-19T07:30:24.734Z,27.83
2019-03-19T07:33:08.736Z,23.87
2019-03-19T07:35:50.486Z,17.87
2019-03-19T07:38:27.769Z,22.70
2019-03-19T07:41:03.315Z,22.97
2019-03-19T07:43:37.838Z,25.60
2019-03-19T07:46:11.225Z,23.43
2019-03-19T07:48:41.341Z,16.07
2019-03-19T07:51:15.233Z,22.33
2019-03-19T07:53:55.933Z,24.50
2019-03-19T07:56:29.860Z,25.97
2019-03-19T07:59:04.407Z,20.47
2019-03-19T08:01:40.664Z,23.73
2019-03-19T08:04:14.579Z,20.63
2019-03-19T08:06:53.774Z,18.60
2019-03-19T08:09:31.968Z,28.37
2019-03-19T08:12:03.528Z,26.07
2019-03-19T08:14:45.228Z,22.73
2019-03-19T08:17:19.282Z,21.87
2019-03-19T08:19:59.253Z,25.93
2019-03-19T08:22:33.712Z,23.40
2019-03-19T08:25:12.056Z,25.20
2019-03-19T08:27:43.633Z,27.40
2019-03-19T08:30:24.365Z,24.37
2019-03-19T08:32:56.428Z,21.33
2019-03-19T08:35:42.513Z,21.43
2019-03-19T08:38:26.357Z,24.03
2019-03-19T08:41:05.566Z,26.47
2019-03-19T08:43:52.721Z,21.77
2019-03-19T08:46:31.780Z,27.70
2019-03-19T08:49:16.639Z,22.60
2019-03-19T08:52:00.441Z,31.43
2019-03-19T08:54:36.087Z,34.67
2019-03-19T08:57:10.919Z,28.70
2019-03-19T08:59:45.337Z,26.23
2019-03-19T09:02:24.776Z,25.37
2019-03-19T09:05:07.183Z,33.43
2019-03-19T09:07:42.010Z,27.13
2019-03-19T09:10:14.074Z,24.23
2019-03-19T09:12:49.805Z,21.37
2019-03-19T09:15:21.072Z,21.50
2019-03-19T09:17:52.315Z,21.93
2019-03-19T09:20:26.328Z,23.60
2019-03-19T09:23:04.842Z,25.67
2019-03-19T09:25:35.661Z,27.13
2019-03-19T09:28:09.173Z,19.27
2019-03-19T09:30:47.035Z,18.20
2019-03-19T09:33:21.291Z,16.97
2019-03-19T09:36:22.191Z,31.73
2019-03-19T09:38:31.561Z,25.07
2019-03-19T09:41:06.799Z,22.20
2019-03-19T09:43:46.836Z,25.33
2019-03-19T09:46:20.354Z,20.63
2019-03-19T09:48:54.257Z,25.70
2019-03-19T09:51:25.298Z,20.30
2019-03-19T09:54:07.909Z,22.30
2019-03-19T09:56:38.073Z,25.50
2019-03-19T09:59:13.303Z,26.30
2019-03-19T10:01:50.143Z,17.47
2019-03-19T10:04:30.040Z,24.87
2019-03-19T10:07:09.631Z,23.70
2019-03-19T10:09:49.380Z,17.63
2019-03-19T10:12:21.596Z,14.57
2019-03-19T10:15:13.527Z,17.83
2019-03-19T10:17:36.888Z,15.20
2019-03-19T10:20:23.639Z,15.60
2019-03-19T10:22:57.714Z,17.10
2019-03-19T10:25:37.893Z,13.40
2019-03-19T10:28:19.969Z,24.43
2019-03-19T10:31:01.806Z,16.43
2019-03-19T10:33:40.300Z,47.87
2019-03-19T10:36:29.294Z,16.90
2019-03-19T10:39:03.457Z,14.77
2019-03-19T10:41:41.975Z,12.03
2019-03-19T10:44:19.850Z,10.77
2019-03-19T10:47:03.078Z,10.33
2019-03-19T10:49:40.449Z,13.07
2019-03-19T10:52:22.188Z,11.43
2019-03-19T10:55:03.469Z,12.47
2019-03-19T10:57:51.530Z,14.93
2019-03-19T11:00:27.755Z,15.97
2019-03-19T11:03:14.073Z,13.67
2019-03-19T11:05:58.125Z,9.87
2019-03-19T11:08:32.132Z,15.73
2019-03-19T11:11:08.687Z,15.20
2019-03-19T11:13:47.940Z,15.53
2019-03-19T11:16:28.817Z,17.60
2019-03-19T11:19:02.347Z,16.77
2019-03-19T11:21:40.826Z,13.53
2019-03-19T11:24:16.988Z,12.70
2019-03-19T11:27:01.454Z,15.87
2019-03-19T11:29:28.184Z,12.33
2019-03-19T11:32:08.030Z,11.10
2019-03-19T11:35:02.015Z,16.10
2019-03-19T11:37:39.192Z,11.80
2019-03-19T11:40:47.774Z,21.43
2019-03-19T11:43:17.828Z,11.53
2019-03-19T11:46:02.181Z,12.47
2019-03-19T11:48:59.142Z,16.97
2019-03-19T11:51:23.447Z,12.03
2019-03-19T11:54:01.101Z,14.33
2019-03-19T11:56:41.571Z,18.00
2019-03-19T11:59:18.289Z,11.93
2019-03-19T12:01:55.366Z,13.13
2019-03-19T12:04:30.662Z,14.23
2019-03-19T12:07:24.640Z,13.93
2019-03-19T12:09:59.879Z,12.90
2019-03-19T12:12:33.858Z,17.00
2019-03-19T12:15:11.251Z,11.30
2019-03-19T12:17:49.179Z,16.27
2019-03-19T12:20:21.045Z,12.53
2019-03-19T12:22:54.575Z,13.27
2019-03-19T12:25:55.169Z,11.03
2019-03-19T12:28:47.718Z,10.60
2019-03-19T12:31:34.466Z,9.83
2019-03-19T12:34:20.546Z,16.00
2019-03-19T12:37:03.687Z,12.93
2019-03-19T12:39:38.004Z,10.73
2019-03-19T12:42:24.402Z,16.13
2019-03-19T12:45:16.542Z,7.80
2019-03-19T12:47:47.838Z,10.50
2019-03-19T12:50:37.514Z,13.63
2019-03-19T12:53:14.144Z,8.43
2019-03-19T12:55:49.178Z,6.83
2019-03-19T12:58:23.847Z,9.77
2019-03-19T13:00:56.646Z,10.60
2019-03-19T13:03:51.079Z,12.40
2019-03-19T13:06:17.956Z,10.93
2019-03-19T13:08:54.800Z,10.77
2019-03-19T13:11:28.197Z,14.67
2019-03-19T13:14:03.130Z,15.10
2019-03-19T13:16:38.231Z,13.57
2019-03-19T13:19:38.835Z,11.57
2019-03-19T13:22:15.481Z,9.67
2019-03-19T13:25:32.393Z,7.67
2019-03-19T13:27:59.955Z,17.00
2019-03-19T13:30:45.321Z,9.50
2019-03-19T13:33:25.793Z,7.00
2019-03-19T13:36:18.036Z,11.07
2019-03-19T13:39:15.900Z,8.57
2019-03-19T13:41:50.427Z,12.30
2019-03-19T13:44:27.819Z,10.23
2019-03-19T13:47:06.748Z,11.07
2019-03-19T13:49:50.279Z,10.60
2019-03-19T13:52:21.176Z,15.83
2019-03-19T13:54:52.563Z,5.37
2019-03-19T13:57:21.846Z,12.43
2019-03-19T13:59:51.195Z,14.60
2019-03-19T14:02:20.463Z,9.50
2019-03-19T14:04:51.409Z,8.63
2019-03-19T14:07:20.723Z,14.60
2019-03-19T14:09:50.258Z,11.23
2019-03-19T14:12:19.630Z,11.70
2019-03-19T14:14:48.932Z,16.13
2019-03-19T14:17:18.230Z,13.23
2019-03-19T14:19:47.514Z,20.70
2019-03-19T14:22:16.817Z,12.63
2019-03-19T14:24:46.196Z,13.27
2019-03-19T14:27:15.884Z,26.40
2019-03-19T14:29:45.564Z,14.70
2019-03-19T14:32:15.188Z,12.60
2019-03-19T14:34:44.448Z,10.23
2019-03-19T14:37:13.766Z,13.93
2019-03-19T14:39:43.030Z,7.80
2019-03-19T14:42:12.370Z,9.77
2019-03-19T14:44:41.679Z,9.93
2019-03-19T14:47:11.082Z,10.23
2019-03-19T14:49:46.611Z,15.33
2019-03-19T14:52:11.637Z,8.47
2019-03-19T14:54:40.974Z,8.23
2019-03-19T14:57:10.589Z,8.63
2019-03-19T14:59:39.897Z,8.37
2019-03-19T15:02:09.631Z,12.37
2019-03-19T15:04:38.976Z,9.60
2019-03-19T15:07:08.744Z,8.87
2019-03-19T15:09:38.458Z,7.53
2019-03-19T15:12:07.779Z,11.40
2019-03-19T15:14:37.050Z,13.73
2019-03-19T15:17:06.511Z,10.70
2019-03-19T15:19:36.351Z,21.70
2019-03-19T15:22:05.789Z,8.97
2019-03-19T15:24:35.140Z,9.80
2019-03-19T15:27:04.506Z,14.23
2019-03-19T15:29:34.105Z,10.13
2019-03-19T15:32:03.630Z,13.30
2019-03-19T15:34:33.284Z,6.63
2019-03-19T15:37:02.566Z,17.27
2019-03-19T15:39:32.211Z,18.27
2019-03-19T15:42:01.544Z,18.13
2019-03-19T15:44:30.819Z,14.90
2019-03-19T15:47:00.079Z,13.43
2019-03-19T15:49:37.952Z,15.50
2019-03-19T15:52:00.709Z,6.93
2019-03-19T15:54:30.007Z,12.77
2019-03-19T15:56:59.654Z,12.13
2019-03-19T15:59:29.814Z,5.60
2019-03-19T16:01:59.122Z,13.73
2019-03-19T16:04:28.548Z,13.27
2019-03-19T16:06:57.843Z,9.90
2019-03-19T16:09:27.147Z,17.07
2019-03-19T16:11:56.472Z,13.73
2019-03-19T16:14:26.085Z,13.63
2019-03-19T16:16:55.635Z,10.63
2019-03-19T16:19:24.934Z,8.33
2019-03-19T16:21:55.425Z,13.73
2019-03-19T16:24:25.443Z,11.70
2019-03-19T16:26:56.438Z,11.13
2019-03-19T16:29:28.102Z,17.80
2019-03-19T16:31:57.167Z,14.53
2019-03-19T16:34:26.464Z,13.80
2019-03-19T16:36:55.752Z,10.10
2019-03-19T16:39:25.072Z,12.57
2019-03-19T16:41:54.382Z,8.37
2019-03-19T16:44:23.758Z,16.23
2019-03-19T16:46:53.045Z,9.50
2019-03-19T16:49:22.653Z,8.77
2019-03-19T16:51:51.989Z,13.87
2019-03-19T16:54:21.259Z,16.57
2019-03-19T16:56:50.571Z,15.77
2019-03-19T16:59:19.960Z,10.10
2019-03-19T17:01:49.554Z,9.70
2019-03-19T17:04:18.887Z,11.10
2019-03-19T17:06:48.171Z,15.33
2019-03-19T17:09:17.822Z,13.53
2019-03-19T17:11:47.584Z,15.73
2019-03-19T17:14:16.838Z,20.23
2019-03-19T17:16:46.627Z,13.93
2019-03-19T17:19:15.936Z,11.50
2019-03-19T17:21:45.477Z,13.10
2019-03-19T17:24:14.807Z,14.70
2019-03-19T17:26:44.097Z,13.30
2019-03-19T17:29:13.389Z,10.77
2019-03-19T17:31:42.984Z,10.43
2019-03-19T17:34:12.279Z,12.63
2019-03-19T17:36:41.589Z,9.37
2019-03-19T17:39:11.227Z,19.10
2019-03-19T17:41:40.923Z,13.97
2019-03-19T17:44:10.374Z,15.83
2019-03-19T17:46:39.929Z,12.13
2019-03-19T17:49:09.265Z,16.97
2019-03-19T17:51:38.555Z,23.23
2019-03-19T17:54:07.827Z,11.97
2019-03-19T17:56:37.442Z,17.47
2019-03-19T17:59:06.723Z,17.20
2019-03-19T18:01:36.096Z,18.83
2019-03-19T18:04:05.443Z,11.50
2019-03-19T18:06:34.731Z,19.23
2019-03-19T18:09:05.719Z,21.40
2019-03-19T18:11:35.370Z,13.87
2019-03-19T18:14:05.009Z,20.47
2019-03-19T18:16:34.335Z,13.63
2019-03-19T18:19:03.698Z,11.97
2019-03-19T18:21:33.048Z,16.77
2019-03-19T18:24:02.623Z,25.00
2019-03-19T18:26:31.914Z,18.87
2019-03-19T18:29:01.564Z,19.77
2019-03-19T18:31:30.859Z,21.50
2019-03-19T18:34:09.950Z,24.93
2019-03-19T18:36:32.102Z,25.83
2019-03-19T18:39:01.363Z,28.87
2019-03-19T18:41:30.658Z,35.97
2019-03-19T18:43:59.948Z,32.17
2019-03-19T18:46:29.630Z,39.17
2019-03-19T18:48:59.081Z,36.13
2019-03-19T18:51:28.822Z,42.87
2019-03-19T18:53:58.194Z,48.17
2019-03-19T18:56:27.737Z,51.63
2019-03-19T18:58:58.334Z,40.93
2019-03-19T19:01:27.691Z,47.47
2019-03-19T19:03:57.007Z,53.53
2019-03-19T19:06:26.637Z,64.37
2019-03-19T19:08:57.332Z,35.73
2019-03-19T19:11:26.641Z,40.00
2019-03-19T19:13:56.204Z,26.90
2019-03-19T19:16:25.478Z,30.87
2019-03-19T19:18:55.204Z,28.43
2019-03-19T19:21:24.479Z,29.33
2019-03-19T19:23:54.019Z,25.83
2019-03-19T19:26:23.593Z,22.87
2019-03-19T19:28:53.200Z,32.33
2019-03-19T19:31:22.542Z,31.47
2019-03-19T19:33:51.920Z,25.90
2019-03-19T19:36:21.229Z,36.40
2019-03-19T19:38:50.495Z,26.17
2019-03-19T19:41:20.122Z,29.73
2019-03-19T19:43:49.471Z,25.47
2019-03-19T19:46:18.988Z,35.37
2019-03-19T19:48:48.440Z,27.30
2019-03-19T19:51:18.101Z,26.60
2019-03-19T19:53:47.674Z,21.10
2019-03-19T19:56:17.334Z,25.37
2019-03-19T19:58:46.715Z,21.47
2019-03-19T20:01:16.841Z,22.50
2019-03-19T20:03:46.762Z,40.87
2019-03-19T20:06:16.076Z,33.90
2019-03-19T20:08:45.695Z,33.03
2019-03-19T20:11:38.535Z,31.30
2019-03-19T20:15:34.054Z,63.17
2019-03-19T20:18:03.074Z,26.67
2019-03-19T20:20:32.832Z,30.80
2019-03-19T20:23:02.509Z,28.70
2019-03-19T20:25:31.844Z,35.40
2019-03-19T20:28:01.505Z,37.63
2019-03-19T20:30:31.075Z,30.57
2019-03-19T20:33:00.456Z,34.13
2019-03-19T20:35:29.791Z,34.87
2019-03-19T20:37:59.333Z,39.43
2019-03-19T20:40:28.956Z,39.37
2019-03-19T20:42:58.776Z,34.20
2019-03-19T20:45:28.133Z,34.17
2019-03-19T20:47:57.498Z,29.87
2019-03-19T20:50:27.832Z,26.00
2019-03-19T20:52:57.148Z,25.93
2019-03-19T20:55:26.876Z,20.27
2019-03-19T20:57:56.597Z,22.63
2019-03-19T21:00:26.117Z,27.87
2019-03-19T21:02:55.661Z,24.43
2019-03-19T21:05:25.212Z,21.27
2019-03-19T21:07:54.518Z,21.87
2019-03-19T21:10:23.816Z,20.67
2019-03-19T21:12:53.095Z,20.17
2019-03-19T21:15:24.164Z,31.53
2019-03-19T21:17:54.419Z,21.00
2019-03-19T21:20:23.732Z,17.73
2019-03-19T21:22:53.219Z,19.93
2019-03-19T21:25:22.492Z,18.77
2019-03-19T21:27:51.821Z,24.03
2019-03-19T21:30:21.364Z,19.60
2019-03-19T21:32:51.128Z,23.30
2019-03-19T21:35:20.761Z,20.70
2019-03-19T21:37:50.163Z,21.93
2019-03-19T21:40:19.914Z,20.43
2019-03-19T21:42:49.703Z,28.50
2019-03-19T21:45:19.026Z,22.07
2019-03-19T21:47:48.659Z,21.07
2019-03-19T21:50:18.034Z,21.03
2019-03-19T21:52:47.374Z,20.53
2019-03-19T21:55:17.119Z,20.70
2019-03-19T21:57:46.623Z,23.50
2019-03-19T22:00:17.685Z,27.63
2019-03-19T22:02:47.036Z,26.33
2019-03-19T22:05:16.352Z,28.20
2019-03-19T22:07:45.696Z,29.57
2019-03-19T22:10:15.754Z,22.37
2019-03-19T22:12:45.784Z,24.57
2019-03-19T22:15:16.517Z,28.87
2019-03-19T22:17:46.405Z,43.90
2019-03-19T22:20:16.020Z,41.53
2019-03-19T22:22:45.395Z,30.43
2019-03-19T22:25:14.839Z,32.27
2019-03-19T22:27:44.885Z,27.13
2019-03-19T22:30:15.765Z,22.13
2019-03-19T22:32:45.384Z,29.23
2019-03-19T22:35:14.832Z,25.67
2019-03-19T22:37:44.445Z,29.93
2019-03-19T22:40:14.903Z,20.57
2019-03-19T22:42:44.553Z,25.97
2019-03-19T22:45:15.107Z,25.43
2019-03-19T22:47:44.424Z,23.10
2019-03-19T22:50:14.619Z,24.60
2019-03-19T22:52:44.022Z,23.70
2019-03-19T22:55:13.648Z,20.47
2019-03-19T22:57:43.052Z,26.83
2019-03-19T23:00:23.428Z,27.10
2019-03-19T23:02:53.102Z,25.13
2019-03-19T23:05:22.464Z,23.27
2019-03-19T23:07:51.823Z,25.50
2019-03-19T23:10:21.268Z,19.60
2019-03-19T23:12:50.808Z,25.13
2019-03-19T23:15:20.130Z,19.63
2019-03-19T23:17:49.788Z,18.43
2019-03-19T23:20:21.871Z,24.90
2019-03-19T23:22:51.501Z,21.90
2019-03-19T23:25:21.279Z,19.97
2019-03-19T23:28:26.694Z,25.20
2019-03-19T23:30:56.107Z,20.27
2019-03-19T23:33:26.425Z,17.30
2019-03-19T23:35:55.840Z,21.33
2019-03-19T23:38:25.552Z,19.20
2019-03-19T23:40:55.175Z,17.50
2019-03-19T23:43:24.648Z,22.23
2019-03-19T23:45:53.992Z,17.20
2019-03-19T23:48:23.352Z,21.70
2019-03-19T23:50:52.989Z,23.87
2019-03-19T23:53:23.575Z,21.03
2019-03-19T23:55:53.341Z,21.70
2019-03-19T23:58:22.739Z,14.00
